Terminal Aerodrome Forecast
Issued by NWS

Home | Current Version | Previous Version | Text Only | Print | Product List | Glossary On
Versions: 1 2 3 4 5 6 7 8 9 10 11 12 13 14 15 16
000
FTUS42 KFFC 231532 AAA
TAFFTY
TAF AMD
KFTY 231532Z 2316/2412 29010G20KT P6SM SCT012 BKN035
      TEMPO 2316/2318 BKN010
     FM231800 26012G22KT P6SM BKN035
     FM232000 25010KT P6SM SCT035
     FM232200 29008KT P6SM SCT250
     FM240500 29004KT P6SM SKC=

USA.gov is the U.S. government's official web portal to all federal, state and local government web resources and services.